createdAt,value
2022-08-26T00:00:49.186Z,67.02
2022-08-26T00:03:17.284Z,67.28
2022-08-26T00:05:44.946Z,66.85
2022-08-26T00:08:14.613Z,66.93
2022-08-26T00:10:42.133Z,67.69
2022-08-26T00:13:09.839Z,68.42
2022-08-26T00:15:37.625Z,68.53
2022-08-26T00:18:21.750Z,68.71
2022-08-26T00:20:49.570Z,68.92
2022-08-26T00:23:16.608Z,68.88
2022-08-26T00:25:43.746Z,68.86
2022-08-26T00:28:10.930Z,69.11
2022-08-26T00:30:38.526Z,69.20
2022-08-26T00:33:07.127Z,69.39
2022-08-26T00:35:34.368Z,69.51
2022-08-26T00:38:03.431Z,69.41
2022-08-26T00:40:34.376Z,69.37
2022-08-26T00:43:03.091Z,69.65
2022-08-26T00:45:42.081Z,69.87
2022-08-26T00:48:13.468Z,69.67
2022-08-26T00:50:47.372Z,69.84
2022-08-26T00:53:14.260Z,69.95
2022-08-26T00:55:41.433Z,70.02
2022-08-26T00:58:08.837Z,70.50
2022-08-26T01:00:35.672Z,70.58
2022-08-26T01:03:03.374Z,70.81
2022-08-26T01:05:33.260Z,70.56
2022-08-26T01:08:00.456Z,70.50
2022-08-26T01:10:30.999Z,70.60
2022-08-26T01:13:00.973Z,70.82
2022-08-26T01:15:32.767Z,71.05
2022-08-26T01:17:59.904Z,71.07
2022-08-26T01:20:35.090Z,71.63
2022-08-26T01:23:05.913Z,71.42
2022-08-26T01:25:39.364Z,71.46
2022-08-26T01:28:10.009Z,71.75
2022-08-26T01:30:39.351Z,71.88
2022-08-26T01:33:12.722Z,72.20
2022-08-26T01:35:40.201Z,72.39
2022-08-26T01:38:08.598Z,72.43
2022-08-26T01:40:38.515Z,72.50
2022-08-26T01:43:08.135Z,73.05
2022-08-26T01:45:43.150Z,73.24
2022-08-26T01:48:14.219Z,72.92
2022-08-26T01:50:43.164Z,73.17
2022-08-26T01:53:14.750Z,73.18
2022-08-26T01:55:44.896Z,73.20
2022-08-26T01:58:16.554Z,73.38
2022-08-26T02:00:44.288Z,73.62
2022-08-26T02:03:11.106Z,73.66
2022-08-26T02:05:39.445Z,73.88
2022-08-26T02:08:07.070Z,74.17
2022-08-26T02:10:35.082Z,74.08
2022-08-26T02:13:02.832Z,74.13
2022-08-26T02:15:29.917Z,74.36
2022-08-26T02:17:56.971Z,74.39
2022-08-26T02:20:25.199Z,74.41
2022-08-26T02:22:53.318Z,74.43
2022-08-26T02:25:24.877Z,74.40
2022-08-26T02:27:53.162Z,74.42
2022-08-26T02:30:23.888Z,74.48
2022-08-26T02:32:52.912Z,74.89
2022-08-26T02:35:22.019Z,74.68
2022-08-26T02:37:49.476Z,74.80
2022-08-26T02:40:18.111Z,75.15
2022-08-26T02:42:45.074Z,75.08
2022-08-26T02:45:13.097Z,74.98
2022-08-26T02:47:43.426Z,75.05
2022-08-26T02:50:10.041Z,75.18
2022-08-26T02:52:37.179Z,75.25
2022-08-26T02:55:05.510Z,75.64
2022-08-26T02:57:32.181Z,75.57
2022-08-26T02:59:59.465Z,75.92
2022-08-26T03:02:28.322Z,75.97
2022-08-26T03:04:58.104Z,76.21
2022-08-26T03:07:28.918Z,76.17
2022-08-26T03:09:56.277Z,76.54
2022-08-26T03:12:23.184Z,76.63
2022-08-26T03:14:49.770Z,76.82
2022-08-26T03:17:16.570Z,76.78
2022-08-26T03:19:44.469Z,76.79
2022-08-26T03:22:11.750Z,76.93
2022-08-26T03:24:41.217Z,77.07
2022-08-26T03:27:11.052Z,77.02
2022-08-26T03:29:38.818Z,77.19
2022-08-26T03:32:05.822Z,76.85
2022-08-26T03:34:32.361Z,76.94
2022-08-26T03:37:00.441Z,76.98
2022-08-26T03:39:27.447Z,77.19
2022-08-26T03:41:58.696Z,77.10
2022-08-26T03:44:25.334Z,77.00
2022-08-26T03:46:52.229Z,76.75
2022-08-26T03:49:18.827Z,76.81
2022-08-26T03:51:45.446Z,76.72
2022-08-26T03:54:13.525Z,76.72
2022-08-26T03:56:40.242Z,76.60
2022-08-26T03:59:07.540Z,76.72
2022-08-26T04:01:34.700Z,76.66
2022-08-26T04:04:01.281Z,76.49
2022-08-26T04:06:30.442Z,76.51
2022-08-26T04:08:59.137Z,76.27
2022-08-26T04:11:28.670Z,76.29
2022-08-26T04:14:03.108Z,76.21
2022-08-26T04:16:29.911Z,76.28
2022-08-26T04:18:57.543Z,75.98
2022-08-26T04:21:26.140Z,75.87
2022-08-26T04:23:53.580Z,75.55
2022-08-26T04:26:21.369Z,75.46
2022-08-26T04:28:51.020Z,75.52
2022-08-26T04:31:18.888Z,76.21
2022-08-26T04:33:47.461Z,76.13
2022-08-26T04:36:16.483Z,76.35
2022-08-26T04:38:43.201Z,76.99
2022-08-26T04:41:15.560Z,76.88
2022-08-26T04:43:43.816Z,77.60
2022-08-26T04:46:12.980Z,77.95
2022-08-26T04:48:40.567Z,77.99
2022-08-26T04:51:07.127Z,78.70
2022-08-26T04:53:34.635Z,79.86
2022-08-26T04:56:01.388Z,79.95
2022-08-26T04:58:30.750Z,80.02
2022-08-26T05:00:57.376Z,80.80
2022-08-26T05:03:26.281Z,81.54
2022-08-26T05:05:53.668Z,82.12
2022-08-26T05:08:21.576Z,81.86
2022-08-26T05:10:50.685Z,83.36
2022-08-26T05:13:20.608Z,82.74
2022-08-26T05:15:48.243Z,83.51
2022-08-26T05:18:16.981Z,84.10
2022-08-26T05:20:50.652Z,83.66
2022-08-26T05:23:18.073Z,83.32
2022-08-26T05:25:47.000Z,83.06
2022-08-26T05:28:15.947Z,83.35
2022-08-26T05:30:43.028Z,83.57
2022-08-26T05:33:11.628Z,82.80
2022-08-26T05:35:39.102Z,82.90
2022-08-26T05:38:12.686Z,82.57
2022-08-26T05:40:41.586Z,82.10
2022-08-26T05:43:08.997Z,81.69
2022-08-26T05:45:36.149Z,81.73
2022-08-26T05:48:03.121Z,81.07
2022-08-26T05:50:36.541Z,80.70
2022-08-26T05:53:06.944Z,80.10
2022-08-26T05:55:33.710Z,79.96
2022-08-26T05:58:01.030Z,79.87
2022-08-26T06:00:29.347Z,79.28
2022-08-26T06:02:55.966Z,79.13
2022-08-26T06:05:22.536Z,78.73
2022-08-26T06:07:49.384Z,78.55
2022-08-26T06:10:33.818Z,78.16
2022-08-26T06:13:04.605Z,78.14
2022-08-26T06:15:41.940Z,78.05
2022-08-26T06:18:09.054Z,77.83
2022-08-26T06:20:35.822Z,77.53
2022-08-26T06:23:03.857Z,77.20
2022-08-26T06:25:32.430Z,76.78
2022-08-26T06:27:59.044Z,76.62
2022-08-26T06:30:26.502Z,76.55
2022-08-26T06:32:53.385Z,76.35
2022-08-26T06:35:20.009Z,75.80
2022-08-26T06:37:47.706Z,75.83
2022-08-26T06:40:14.351Z,75.63
2022-08-26T06:42:42.338Z,74.88
2022-08-26T06:45:10.687Z,75.49
2022-08-26T06:47:41.491Z,75.16
2022-08-26T06:50:08.755Z,75.13
2022-08-26T06:52:35.317Z,75.09
2022-08-26T06:55:02.031Z,75.12
2022-08-26T06:57:28.732Z,74.89
2022-08-26T06:59:59.564Z,74.37
2022-08-26T07:02:28.441Z,74.15
2022-08-26T07:04:56.825Z,73.79
2022-08-26T07:07:23.487Z,73.70
2022-08-26T07:09:52.486Z,73.50
2022-08-26T07:12:19.444Z,73.28
2022-08-26T07:14:47.326Z,73.29
2022-08-26T07:17:16.510Z,73.07
2022-08-26T07:19:43.246Z,72.76
2022-08-26T07:22:09.876Z,72.56
2022-08-26T07:24:39.426Z,72.25
2022-08-26T07:27:08.921Z,72.02
2022-08-26T07:29:36.993Z,71.87
2022-08-26T07:32:04.122Z,71.44
2022-08-26T07:34:33.316Z,71.56
2022-08-26T07:37:00.441Z,71.58
2022-08-26T07:39:28.067Z,71.22
2022-08-26T07:41:54.996Z,71.35
2022-08-26T07:44:22.193Z,70.96
2022-08-26T07:46:53.191Z,70.68
2022-08-26T07:49:20.929Z,70.31
2022-08-26T07:51:49.239Z,70.20
2022-08-26T07:54:15.865Z,69.96
2022-08-26T07:56:44.285Z,69.94
2022-08-26T07:59:14.073Z,69.58
2022-08-26T08:01:44.706Z,70.14
2022-08-26T08:04:12.521Z,69.71
2022-08-26T08:06:41.482Z,69.50
2022-08-26T08:09:13.311Z,69.24
2022-08-26T08:11:40.202Z,69.02
2022-08-26T08:14:08.430Z,68.42
2022-08-26T08:16:37.246Z,68.42
2022-08-26T08:19:05.742Z,68.27
2022-08-26T08:21:32.571Z,68.13
2022-08-26T08:23:59.270Z,68.06
2022-08-26T08:26:27.440Z,67.87
2022-08-26T08:28:55.474Z,67.97
2022-08-26T08:31:52.134Z,67.90
2022-08-26T08:34:11.096Z,67.75
2022-08-26T08:36:37.727Z,67.70
2022-08-26T08:39:05.067Z,67.47
2022-08-26T08:41:48.200Z,66.76
2022-08-26T08:44:18.380Z,67.11
2022-08-26T08:46:47.642Z,66.81
2022-08-26T08:49:15.255Z,66.53
2022-08-26T08:51:48.005Z,66.12
2022-08-26T08:54:14.982Z,65.94
2022-08-26T08:56:50.083Z,65.48
2022-08-26T08:59:19.995Z,65.26
2022-08-26T09:01:59.695Z,64.85
2022-08-26T09:04:58.222Z,65.11
2022-08-26T09:07:28.120Z,64.96
2022-08-26T09:09:58.018Z,64.52
2022-08-26T09:12:29.390Z,63.97
2022-08-26T09:15:02.144Z,64.14
2022-08-26T09:17:43.907Z,63.58
2022-08-26T09:20:17.579Z,64.04
2022-08-26T09:22:44.434Z,63.61
2022-08-26T09:25:13.477Z,63.51
2022-08-26T09:27:44.015Z,63.48
2022-08-26T09:30:13.533Z,63.38
2022-08-26T09:32:40.858Z,63.28
2022-08-26T09:35:23.437Z,62.31
2022-08-26T09:40:22.092Z,63.13
2022-08-26T09:43:06.760Z,63.18
2022-08-26T09:45:33.656Z,63.14
2022-08-26T09:48:02.321Z,63.48
2022-08-26T09:50:33.949Z,62.87
2022-08-26T09:53:14.628Z,63.33
2022-08-26T09:55:43.189Z,63.50
2022-08-26T09:58:15.420Z,63.21
2022-08-26T10:00:43.493Z,63.42
2022-08-26T10:03:21.553Z,63.10
2022-08-26T10:05:57.284Z,62.71
2022-08-26T10:08:27.681Z,62.26
2022-08-26T10:10:55.749Z,62.52
2022-08-26T10:13:29.537Z,62.44
2022-08-26T10:16:03.826Z,62.40
2022-08-26T10:18:35.403Z,62.29
2022-08-26T10:21:07.368Z,61.80
2022-08-26T10:26:12.348Z,61.64
2022-08-26T10:28:45.849Z,61.73
2022-08-26T10:31:28.627Z,61.77
2022-08-26T10:33:58.891Z,61.78
2022-08-26T10:36:30.552Z,61.98
2022-08-26T10:38:59.871Z,61.73
2022-08-26T10:41:31.424Z,61.65
2022-08-26T10:44:01.344Z,62.22
2022-08-26T10:46:36.929Z,61.85
2022-08-26T10:49:06.835Z,61.35
2022-08-26T10:51:36.120Z,61.67
2022-08-26T10:54:09.416Z,61.47
2022-08-26T10:56:45.865Z,61.29
2022-08-26T10:59:24.230Z,61.98
2022-08-26T11:01:57.571Z,62.08
2022-08-26T11:04:51.069Z,61.95
2022-08-26T11:07:37.832Z,61.46
2022-08-26T11:10:08.711Z,61.46
2022-08-26T11:12:50.655Z,61.24
2022-08-26T11:15:50.467Z,61.30
2022-08-26T11:18:45.654Z,61.12
2022-08-26T11:22:04.811Z,60.58
2022-08-26T11:25:00.329Z,60.95
2022-08-26T11:28:03.486Z,60.91
2022-08-26T11:30:42.733Z,59.76
2022-08-26T11:33:10.500Z,59.69
2022-08-26T11:35:50.840Z,59.59
2022-08-26T11:38:27.337Z,58.79
2022-08-26T11:41:08.915Z,57.78
2022-08-26T11:43:37.753Z,57.63
2022-08-26T11:46:07.316Z,57.78
2022-08-26T11:48:37.015Z,57.55
2022-08-26T11:51:07.764Z,56.51
2022-08-26T11:53:37.193Z,57.05
2022-08-26T11:56:07.874Z,56.37
2022-08-26T11:58:35.776Z,56.35
2022-08-26T12:01:05.963Z,55.97
2022-08-26T12:03:41.159Z,55.83
2022-08-26T12:06:16.259Z,54.86
2022-08-26T12:08:44.646Z,54.99
2022-08-26T12:11:20.021Z,54.22
2022-08-26T12:13:54.659Z,54.97
2022-08-26T12:16:24.273Z,55.63
2022-08-26T12:18:51.889Z,55.57
2022-08-26T12:21:24.410Z,55.33
2022-08-26T12:23:53.805Z,55.10
2022-08-26T12:26:25.417Z,55.46
2022-08-26T12:28:55.578Z,55.58
2022-08-26T12:31:28.953Z,56.14
2022-08-26T12:33:56.996Z,55.88
2022-08-26T12:36:30.672Z,55.69
2022-08-26T12:39:05.248Z,55.53
2022-08-26T12:41:40.802Z,55.06
2022-08-26T12:44:07.960Z,55.61
2022-08-26T12:46:34.706Z,55.18
2022-08-26T12:49:01.425Z,54.86
2022-08-26T12:51:31.880Z,54.00
2022-08-26T12:53:59.150Z,54.05
2022-08-26T12:56:33.862Z,53.38
2022-08-26T12:59:19.039Z,52.89
2022-08-26T13:01:45.815Z,52.85
2022-08-26T13:04:40.925Z,52.38
2022-08-26T13:07:20.303Z,52.38
2022-08-26T13:09:47.007Z,51.98
2022-08-26T13:12:24.149Z,51.28
2022-08-26T13:14:50.776Z,51.71
2022-08-26T13:17:17.309Z,50.73
2022-08-26T13:19:44.102Z,50.77
2022-08-26T13:22:12.828Z,50.54
2022-08-26T13:24:43.141Z,50.15
2022-08-26T13:27:13.828Z,50.19
2022-08-26T13:29:41.046Z,49.73
2022-08-26T13:32:08.527Z,50.16
2022-08-26T13:34:37.283Z,49.99
2022-08-26T13:37:04.906Z,49.92
2022-08-26T13:39:31.579Z,50.40
2022-08-26T13:41:59.482Z,50.78
2022-08-26T13:44:26.049Z,50.49
2022-08-26T13:46:52.601Z,50.99
2022-08-26T13:49:19.172Z,51.66
2022-08-26T13:51:45.724Z,52.43
2022-08-26T13:54:12.301Z,52.13
2022-08-26T13:56:38.961Z,52.13
2022-08-26T13:59:06.934Z,52.36
2022-08-26T14:01:35.453Z,51.82
2022-08-26T14:04:02.370Z,52.21
2022-08-26T14:06:28.998Z,52.18
2022-08-26T14:08:55.550Z,52.23
2022-08-26T14:11:23.157Z,51.85
2022-08-26T14:13:49.773Z,52.71
2022-08-26T14:16:22.764Z,52.65
2022-08-26T14:18:50.889Z,52.87
2022-08-26T14:21:18.364Z,53.05
2022-08-26T14:23:45.090Z,52.84
2022-08-26T14:26:12.029Z,53.30
2022-08-26T14:28:54.474Z,52.92
2022-08-26T14:31:22.448Z,53.23
2022-08-26T14:33:49.185Z,52.75
2022-08-26T14:36:15.715Z,52.89
2022-08-26T14:38:42.396Z,52.94
2022-08-26T14:41:09.500Z,52.70
2022-08-26T14:43:36.241Z,52.50
2022-08-26T14:46:03.979Z,52.86
2022-08-26T14:48:32.049Z,53.08
2022-08-26T14:50:58.643Z,53.65
2022-08-26T14:53:25.285Z,53.25
2022-08-26T14:55:52.416Z,53.83
2022-08-26T14:58:19.097Z,52.95
2022-08-26T15:00:45.824Z,53.24
2022-08-26T15:03:12.582Z,53.22
2022-08-26T15:05:42.198Z,53.50
2022-08-26T15:08:09.788Z,53.62
2022-08-26T15:10:36.493Z,53.38
2022-08-26T15:13:03.125Z,53.54
2022-08-26T15:15:29.745Z,53.41
2022-08-26T15:17:56.409Z,53.41
2022-08-26T15:20:23.115Z,53.28
2022-08-26T15:22:51.141Z,52.98
2022-08-26T15:25:17.730Z,52.89
2022-08-26T15:27:44.598Z,53.42
2022-08-26T15:30:13.006Z,53.71
2022-08-26T15:32:39.654Z,54.10
2022-08-26T15:35:09.269Z,54.41
2022-08-26T15:37:36.275Z,54.74
2022-08-26T15:40:05.268Z,54.60
2022-08-26T15:42:32.058Z,54.50
2022-08-26T15:44:58.616Z,54.96
2022-08-26T15:47:25.245Z,55.23
2022-08-26T15:49:51.769Z,55.28
2022-08-26T15:52:18.418Z,54.97
2022-08-26T15:54:44.977Z,54.96
2022-08-26T15:57:15.365Z,54.88
2022-08-26T15:59:43.158Z,54.65
2022-08-26T16:02:09.807Z,54.35
2022-08-26T16:04:36.885Z,55.19
2022-08-26T16:07:03.845Z,54.93
2022-08-26T16:09:30.513Z,54.96
2022-08-26T16:11:57.467Z,55.18
2022-08-26T16:14:26.921Z,55.20
2022-08-26T16:16:53.469Z,55.20
2022-08-26T16:19:20.350Z,55.13
2022-08-26T16:21:46.988Z,55.40
2022-08-26T16:24:14.474Z,55.79
2022-08-26T16:26:43.026Z,56.00
2022-08-26T16:29:11.745Z,55.57
2022-08-26T16:31:39.836Z,55.70
2022-08-26T16:34:07.454Z,55.65
2022-08-26T16:36:34.371Z,55.75
2022-08-26T16:39:01.210Z,56.05
2022-08-26T16:41:29.509Z,55.98
2022-08-26T16:43:56.679Z,55.61
2022-08-26T16:46:24.516Z,55.56
2022-08-26T16:48:53.002Z,55.71
2022-08-26T16:51:21.715Z,55.38
2022-08-26T16:53:50.306Z,55.59
2022-08-26T16:56:20.473Z,55.65
2022-08-26T16:58:47.436Z,55.65
2022-08-26T17:01:14.454Z,55.90
2022-08-26T17:03:41.202Z,55.88
2022-08-26T17:06:09.906Z,56.37
2022-08-26T17:08:37.441Z,55.84
2022-08-26T17:11:04.333Z,55.99
2022-08-26T17:13:35.741Z,56.31
2022-08-26T17:16:04.267Z,56.42
2022-08-26T17:18:31.766Z,56.45
2022-08-26T17:21:00.876Z,56.78
2022-08-26T17:23:28.874Z,56.63
2022-08-26T17:25:55.457Z,56.45
2022-08-26T17:28:22.037Z,56.59
2022-08-26T17:30:48.694Z,56.72
2022-08-26T17:33:18.646Z,56.82
2022-08-26T17:35:48.813Z,56.90
2022-08-26T17:38:15.410Z,56.89
2022-08-26T17:40:43.400Z,56.97
2022-08-26T17:43:12.339Z,57.06
2022-08-26T17:45:39.922Z,57.16
2022-08-26T17:48:06.854Z,57.56
2022-08-26T17:50:33.550Z,57.47
2022-08-26T17:53:00.156Z,57.71
2022-08-26T17:55:26.917Z,58.29
2022-08-26T17:57:55.572Z,58.58
2022-08-26T18:00:27.013Z,58.12
2022-08-26T18:02:54.266Z,58.14
2022-08-26T18:05:21.872Z,58.56
2022-08-26T18:07:48.554Z,58.30
2022-08-26T18:10:20.868Z,58.36
2022-08-26T18:12:48.201Z,58.46
2022-08-26T18:15:17.306Z,58.46
2022-08-26T18:17:44.913Z,58.54
2022-08-26T18:20:14.273Z,58.63
2022-08-26T18:22:41.044Z,59.02
2022-08-26T18:25:08.648Z,58.82
2022-08-26T18:27:36.185Z,58.87
2022-08-26T18:30:04.457Z,58.97
2022-08-26T18:32:32.577Z,59.29
2022-08-26T18:34:59.323Z,59.26
2022-08-26T18:37:29.472Z,59.49
2022-08-26T18:39:58.125Z,59.86
2022-08-26T18:42:24.809Z,59.83
2022-08-26T18:44:51.652Z,59.84
2022-08-26T18:47:18.208Z,59.92
2022-08-26T18:49:46.257Z,60.17
2022-08-26T18:52:13.008Z,60.16
2022-08-26T18:54:39.731Z,60.23
2022-08-26T18:57:06.374Z,60.10
2022-08-26T18:59:33.792Z,60.35
2022-08-26T19:02:00.508Z,60.47
2022-08-26T19:04:27.350Z,60.42
2022-08-26T19:06:55.342Z,60.65
2022-08-26T19:09:22.008Z,60.59
2022-08-26T19:11:50.003Z,60.58
2022-08-26T19:14:17.682Z,60.59
2022-08-26T19:16:48.730Z,60.07
2022-08-26T19:19:16.501Z,60.34
2022-08-26T19:21:43.326Z,60.22
2022-08-26T19:24:15.872Z,60.19
2022-08-26T19:26:43.431Z,60.45
2022-08-26T19:29:10.005Z,60.69
2022-08-26T19:31:36.656Z,60.84
2022-08-26T19:34:03.986Z,60.57
2022-08-26T19:36:31.865Z,60.50
2022-08-26T19:38:58.495Z,60.63
2022-08-26T19:41:36.687Z,60.40
2022-08-26T19:44:06.954Z,60.50
2022-08-26T19:46:33.688Z,60.45
2022-08-26T19:49:00.241Z,60.31
2022-08-26T19:51:29.355Z,60.46
2022-08-26T19:53:58.088Z,60.33
2022-08-26T19:56:27.640Z,60.38
2022-08-26T19:58:55.013Z,60.51
2022-08-26T20:01:22.169Z,61.26
2022-08-26T20:03:49.216Z,61.03
2022-08-26T20:06:16.830Z,61.07
2022-08-26T20:08:44.190Z,61.03
2022-08-26T20:11:13.606Z,60.81
2022-08-26T20:13:42.577Z,60.99
2022-08-26T20:16:09.295Z,60.99
2022-08-26T20:18:35.919Z,60.81
2022-08-26T20:21:02.549Z,60.98
2022-08-26T20:23:29.118Z,61.31
2022-08-26T20:25:55.658Z,61.24
2022-08-26T20:28:22.229Z,61.32
2022-08-26T20:30:50.209Z,61.37
2022-08-26T20:33:16.758Z,61.42
2022-08-26T20:35:43.299Z,61.44
2022-08-26T20:38:09.964Z,61.56
2022-08-26T20:40:36.562Z,61.48
2022-08-26T20:43:03.156Z,61.62
2022-08-26T20:45:29.795Z,61.42
2022-08-26T20:47:57.861Z,61.41
2022-08-26T20:50:24.421Z,61.63
2022-08-26T20:52:50.962Z,61.67
2022-08-26T20:55:17.515Z,61.69
2022-08-26T20:57:44.046Z,61.79
2022-08-26T21:00:12.043Z,62.01
2022-08-26T21:02:38.777Z,61.98
2022-08-26T21:05:08.298Z,62.58
2022-08-26T21:07:35.601Z,62.62
2022-08-26T21:10:02.909Z,62.89
2022-08-26T21:12:29.715Z,63.23
2022-08-26T21:14:56.282Z,63.23
2022-08-26T21:17:22.856Z,63.30
2022-08-26T21:19:49.386Z,63.51
2022-08-26T21:22:17.315Z,63.51
2022-08-26T21:24:43.860Z,63.56
2022-08-26T21:27:10.789Z,63.71
2022-08-26T21:29:37.366Z,63.71
2022-08-26T21:32:04.462Z,64.18
2022-08-26T21:34:31.043Z,63.85
2022-08-26T21:36:57.756Z,63.97
2022-08-26T21:39:26.005Z,64.25
2022-08-26T21:41:52.543Z,64.20
2022-08-26T21:44:19.105Z,64.15
2022-08-26T21:46:46.285Z,64.24
2022-08-26T21:49:14.825Z,64.11
2022-08-26T21:51:44.180Z,64.44
2022-08-26T21:54:12.102Z,64.80
2022-08-26T21:56:42.681Z,64.86
2022-08-26T21:59:09.413Z,65.17
2022-08-26T22:01:36.491Z,65.24
2022-08-26T22:04:05.686Z,65.59
2022-08-26T22:06:34.658Z,65.54
2022-08-26T22:09:01.402Z,65.62
2022-08-26T22:11:28.365Z,65.98
2022-08-26T22:13:56.376Z,66.37
2022-08-26T22:16:23.153Z,66.70
2022-08-26T22:18:50.049Z,66.49
2022-08-26T22:21:19.265Z,66.97
2022-08-26T22:23:46.480Z,67.14
2022-08-26T22:26:15.640Z,67.19
2022-08-26T22:28:52.430Z,67.07
2022-08-26T22:31:37.078Z,67.40
2022-08-26T22:34:06.339Z,67.35
2022-08-26T22:36:32.860Z,67.29
2022-08-26T22:39:00.701Z,67.41
2022-08-26T22:41:27.461Z,67.44
2022-08-26T22:43:54.035Z,67.51
2022-08-26T22:46:25.597Z,67.51
2022-08-26T22:48:54.269Z,68.19
2022-08-26T22:51:21.889Z,68.00
2022-08-26T22:53:48.982Z,67.93
2022-08-26T22:56:15.909Z,67.99
2022-08-26T22:58:42.613Z,68.51
2022-08-26T23:01:09.383Z,68.42
2022-08-26T23:03:36.141Z,68.52
2022-08-26T23:06:06.321Z,68.22
2022-08-26T23:08:32.919Z,68.30
2022-08-26T23:10:59.511Z,68.67
2022-08-26T23:13:26.103Z,68.66
2022-08-26T23:16:00.617Z,68.71
2022-08-26T23:18:27.367Z,68.81
2022-08-26T23:20:54.339Z,68.74
2022-08-26T23:23:22.363Z,68.80
2022-08-26T23:25:48.959Z,68.80
2022-08-26T23:28:16.221Z,68.73
2022-08-26T23:30:42.836Z,68.96
2022-08-26T23:33:09.462Z,68.96
2022-08-26T23:35:35.997Z,69.04
2022-08-26T23:38:04.828Z,69.13
2022-08-26T23:40:34.680Z,69.18
2022-08-26T23:43:04.244Z,69.22
2022-08-26T23:45:31.309Z,69.39
2022-08-26T23:47:58.713Z,69.72
2022-08-26T23:50:27.654Z,69.49
2022-08-26T23:52:54.205Z,69.86
2022-08-26T23:55:20.835Z,69.43
2022-08-26T23:57:49.173Z,69.50
